createdAt,value
2022-11-11T00:00:32.938Z,86.42
2022-11-11T00:02:49.550Z,85.75
2022-11-11T00:04:51.666Z,85.46
2022-11-11T00:06:54.169Z,85.56
2022-11-11T00:08:56.224Z,85.51
2022-11-11T00:11:24.094Z,85.40
2022-11-11T00:13:26.577Z,85.80
2022-11-11T00:15:29.595Z,85.65
2022-11-11T00:17:50.167Z,85.94
2022-11-11T00:20:11.007Z,85.66
2022-11-11T00:22:39.845Z,85.99
2022-11-11T00:25:00.395Z,85.60
2022-11-11T00:27:03.540Z,85.24
2022-11-11T00:29:05.371Z,85.02
2022-11-11T00:31:09.835Z,85.31
2022-11-11T00:33:12.568Z,85.23
2022-11-11T00:35:33.427Z,84.90
2022-11-11T00:37:35.944Z,84.68
2022-11-11T00:39:38.273Z,84.19
2022-11-11T00:41:40.238Z,84.63
2022-11-11T00:43:42.979Z,84.73
2022-11-11T00:45:45.167Z,84.82
2022-11-11T00:48:05.616Z,85.17
2022-11-11T00:50:30.659Z,85.70
2022-11-11T00:52:33.111Z,84.55
2022-11-11T00:54:35.093Z,85.93
2022-11-11T00:56:37.730Z,86.41
2022-11-11T00:58:39.943Z,86.11
2022-11-11T01:00:41.797Z,86.56
2022-11-11T01:02:43.734Z,86.44
2022-11-11T01:04:46.011Z,85.45
2022-11-11T01:06:47.819Z,84.81
2022-11-11T01:08:49.735Z,85.17
2022-11-11T01:10:52.123Z,85.78
2022-11-11T01:13:12.381Z,85.94
2022-11-11T01:15:14.784Z,84.81
2022-11-11T01:17:17.012Z,85.17
2022-11-11T01:19:18.917Z,84.15
2022-11-11T01:21:23.318Z,85.00
2022-11-11T01:23:25.622Z,85.80
2022-11-11T01:25:27.479Z,84.72
2022-11-11T01:27:29.347Z,84.47
2022-11-11T01:29:31.567Z,84.20
2022-11-11T01:31:33.468Z,84.44
2022-11-11T01:33:36.202Z,83.75
2022-11-11T01:35:40.213Z,84.06
2022-11-11T01:37:42.256Z,83.81
2022-11-11T01:39:44.165Z,83.46
2022-11-11T01:41:46.303Z,83.89
2022-11-11T01:43:48.421Z,83.06
2022-11-11T01:46:00.177Z,83.17
2022-11-11T01:48:26.445Z,82.46
2022-11-11T01:50:30.513Z,83.18
2022-11-11T01:52:40.039Z,82.47
2022-11-11T01:54:54.527Z,82.24
2022-11-11T01:57:02.783Z,81.93
2022-11-11T01:59:11.420Z,81.30
2022-11-11T02:01:13.809Z,81.79
2022-11-11T02:03:19.027Z,81.55
2022-11-11T02:05:41.261Z,81.58
2022-11-11T02:07:43.741Z,82.27
2022-11-11T02:09:47.758Z,82.20
2022-11-11T02:12:09.928Z,81.96
2022-11-11T02:14:33.034Z,81.39
2022-11-11T02:16:35.190Z,81.17
2022-11-11T02:18:37.176Z,81.19
2022-11-11T02:20:43.499Z,81.32
2022-11-11T02:22:54.040Z,81.17
2022-11-11T02:24:57.125Z,79.61
2022-11-11T02:27:01.919Z,80.59
2022-11-11T02:29:09.196Z,80.36
2022-11-11T02:31:11.100Z,80.70
2022-11-11T02:33:13.303Z,80.20
2022-11-11T02:35:31.590Z,80.28
2022-11-11T02:37:33.549Z,80.38
2022-11-11T02:40:02.465Z,80.63
2022-11-11T02:42:10.431Z,81.11
2022-11-11T02:44:12.301Z,81.01
2022-11-11T02:46:14.641Z,81.45
2022-11-11T02:48:16.673Z,81.97
2022-11-11T02:50:18.791Z,81.75
2022-11-11T02:52:21.429Z,81.84
2022-11-11T02:54:23.469Z,81.18
2022-11-11T02:56:44.591Z,81.45
2022-11-11T02:58:46.998Z,81.34
2022-11-11T03:00:48.850Z,81.57
2022-11-11T03:02:50.957Z,82.12
2022-11-11T03:04:54.931Z,82.12
2022-11-11T03:06:56.983Z,81.98
2022-11-11T03:08:59.070Z,83.14
2022-11-11T03:11:01.429Z,83.48
2022-11-11T03:13:03.626Z,83.33
2022-11-11T03:15:06.291Z,82.92
2022-11-11T03:17:27.379Z,82.31
2022-11-11T03:19:29.708Z,83.09
2022-11-11T03:23:53.688Z,82.76
2022-11-11T03:25:58.277Z,82.67
2022-11-11T03:28:00.263Z,82.50
2022-11-11T03:30:02.400Z,82.81
2022-11-11T03:32:04.669Z,82.56
2022-11-11T03:34:18.620Z,82.69
2022-11-11T03:36:20.925Z,82.56
2022-11-11T03:38:25.362Z,82.93
2022-11-11T03:40:27.536Z,82.97
2022-11-11T03:42:29.679Z,83.14
2022-11-11T03:44:31.505Z,83.13
2022-11-11T03:46:33.359Z,84.60
2022-11-11T03:48:35.760Z,85.25
2022-11-11T03:50:38.076Z,85.18
2022-11-11T03:52:46.129Z,85.34
2022-11-11T03:54:48.435Z,84.73
2022-11-11T03:56:50.194Z,85.17
2022-11-11T03:58:52.020Z,84.81
2022-11-11T04:00:55.691Z,85.14
2022-11-11T04:03:40.344Z,84.36
2022-11-11T04:06:00.699Z,84.00
2022-11-11T04:08:21.718Z,83.80
2022-11-11T04:10:23.756Z,83.40
2022-11-11T04:12:26.979Z,84.05
2022-11-11T04:14:47.590Z,84.27
2022-11-11T04:16:49.658Z,83.78
2022-11-11T04:19:29.730Z,83.66
2022-11-11T04:21:43.810Z,82.47
2022-11-11T04:23:45.603Z,81.97
2022-11-11T04:25:50.034Z,80.97
2022-11-11T04:28:12.206Z,80.90
2022-11-11T04:30:14.060Z,80.92
2022-11-11T04:32:35.911Z,81.23
2022-11-11T04:34:38.083Z,81.21
2022-11-11T04:36:39.876Z,80.56
2022-11-11T04:39:00.468Z,81.13
2022-11-11T04:41:05.610Z,81.12
2022-11-11T04:43:07.384Z,80.70
2022-11-11T04:45:30.698Z,79.98
2022-11-11T04:47:32.818Z,80.12
2022-11-11T04:49:34.603Z,80.34
2022-11-11T04:51:54.835Z,80.79
2022-11-11T04:53:57.096Z,79.89
2022-11-11T04:56:17.130Z,79.93
2022-11-11T04:58:21.632Z,79.81
2022-11-11T05:00:28.933Z,80.11
2022-11-11T05:02:51.820Z,78.96
2022-11-11T05:04:53.604Z,79.04
2022-11-11T05:07:14.344Z,79.04
2022-11-11T05:09:16.138Z,79.54
2022-11-11T05:11:19.008Z,79.39
2022-11-11T05:13:39.687Z,79.13
2022-11-11T05:16:02.155Z,79.01
2022-11-11T05:18:22.712Z,79.94
2022-11-11T05:20:43.469Z,78.40
2022-11-11T05:22:45.314Z,78.77
2022-11-11T05:25:05.670Z,78.55
2022-11-11T05:27:08.190Z,78.21
2022-11-11T05:29:09.991Z,77.86
2022-11-11T05:31:11.778Z,77.67
2022-11-11T05:33:13.989Z,77.41
2022-11-11T05:35:16.403Z,78.11
2022-11-11T05:37:18.879Z,77.79
2022-11-11T05:39:21.002Z,77.06
2022-11-11T05:41:22.824Z,77.55
2022-11-11T05:43:24.914Z,77.72
2022-11-11T05:45:27.318Z,77.93
2022-11-11T05:47:29.209Z,77.21
2022-11-11T05:49:31.063Z,76.42
2022-11-11T05:51:36.766Z,76.80
2022-11-11T05:53:40.847Z,76.66
2022-11-11T05:55:42.631Z,76.26
2022-11-11T05:57:45.048Z,76.21
2022-11-11T05:59:48.413Z,75.90
2022-11-11T06:01:50.472Z,75.07
2022-11-11T06:03:52.655Z,75.75
2022-11-11T06:05:54.619Z,75.63
2022-11-11T06:07:56.414Z,75.26
2022-11-11T06:10:18.815Z,75.51
2022-11-11T06:12:20.967Z,76.00
2022-11-11T06:14:22.872Z,75.57
2022-11-11T06:16:25.067Z,75.98
2022-11-11T06:18:30.897Z,75.60
2022-11-11T06:20:35.451Z,75.30
2022-11-11T06:22:56.191Z,74.83
2022-11-11T06:25:18.310Z,75.40
2022-11-11T06:27:20.099Z,75.33
2022-11-11T06:29:22.313Z,75.76
2022-11-11T06:31:26.227Z,75.07
2022-11-11T06:33:28.353Z,74.53
2022-11-11T06:35:30.762Z,74.12
2022-11-11T06:37:32.708Z,75.07
2022-11-11T06:39:37.440Z,75.18
2022-11-11T06:41:39.668Z,74.08
2022-11-11T06:43:42.784Z,74.02
2022-11-11T06:45:45.411Z,74.19
2022-11-11T06:47:47.600Z,72.71
2022-11-11T06:49:49.428Z,72.98
2022-11-11T06:51:51.391Z,73.15
2022-11-11T06:53:53.644Z,72.98
2022-11-11T06:55:55.876Z,73.54
2022-11-11T06:58:05.353Z,72.98
2022-11-11T07:00:08.297Z,72.62
2022-11-11T07:02:13.625Z,72.86
2022-11-11T07:04:15.440Z,72.19
2022-11-11T07:06:17.607Z,71.69
2022-11-11T07:08:19.510Z,72.03
2022-11-11T07:10:22.204Z,72.63
2022-11-11T07:12:24.364Z,71.10
2022-11-11T07:14:27.512Z,73.82
2022-11-11T07:16:29.537Z,71.97
2022-11-11T07:18:31.730Z,71.37
2022-11-11T07:20:34.091Z,71.16
2022-11-11T07:22:38.237Z,72.46
2022-11-11T07:24:40.731Z,72.45
2022-11-11T07:26:42.537Z,70.75
2022-11-11T07:28:44.404Z,71.39
2022-11-11T07:30:46.534Z,71.05
2022-11-11T07:32:50.557Z,71.78
2022-11-11T07:34:52.547Z,71.78
2022-11-11T07:36:54.758Z,71.28
2022-11-11T07:38:56.611Z,70.38
2022-11-11T07:40:58.495Z,71.35
2022-11-11T07:43:00.631Z,69.34
2022-11-11T07:45:02.499Z,70.14
2022-11-11T07:47:04.465Z,71.18
2022-11-11T07:49:06.707Z,71.07
2022-11-11T07:51:08.537Z,71.13
2022-11-11T07:53:10.359Z,70.53
2022-11-11T07:55:12.779Z,70.79
2022-11-11T07:57:14.625Z,70.05
2022-11-11T07:59:16.595Z,69.77
2022-11-11T08:01:19.244Z,70.02
2022-11-11T08:03:21.627Z,69.93
2022-11-11T08:05:23.961Z,68.72
2022-11-11T08:07:26.513Z,68.59
2022-11-11T08:09:28.631Z,68.66
2022-11-11T08:11:49.079Z,68.42
2022-11-11T08:13:52.238Z,67.81
2022-11-11T08:15:55.987Z,66.09
2022-11-11T08:17:57.786Z,65.01
2022-11-11T08:20:00.113Z,65.84
2022-11-11T08:22:02.119Z,65.04
2022-11-11T08:24:56.846Z,65.01
2022-11-11T08:26:29.819Z,64.29
2022-11-11T08:28:34.307Z,63.47
2022-11-11T08:30:36.099Z,63.51
2022-11-11T08:32:38.599Z,63.40
2022-11-11T08:34:40.515Z,61.85
2022-11-11T08:36:42.508Z,62.28
2022-11-11T08:38:44.918Z,62.42
2022-11-11T08:40:47.195Z,61.39
2022-11-11T08:42:49.195Z,61.32
2022-11-11T08:44:51.923Z,60.84
2022-11-11T08:46:53.805Z,61.29
2022-11-11T08:48:55.634Z,60.23
2022-11-11T08:50:58.538Z,60.56
2022-11-11T08:53:00.409Z,61.21
2022-11-11T08:55:02.235Z,62.49
2022-11-11T08:57:04.505Z,62.34
2022-11-11T08:59:07.079Z,61.69
2022-11-11T09:01:13.881Z,60.50
2022-11-11T09:03:16.388Z,61.79
2022-11-11T09:05:19.310Z,61.25
2022-11-11T09:07:21.229Z,60.39
2022-11-11T09:09:23.380Z,59.92
2022-11-11T09:11:25.183Z,59.13
2022-11-11T09:13:27.691Z,58.85
2022-11-11T09:15:31.118Z,58.65
2022-11-11T09:17:33.013Z,58.29
2022-11-11T09:19:34.779Z,58.73
2022-11-11T09:21:37.099Z,58.79
2022-11-11T09:23:38.896Z,59.13
2022-11-11T09:25:41.109Z,58.36
2022-11-11T09:27:43.841Z,58.65
2022-11-11T09:29:45.663Z,58.59
2022-11-11T09:31:47.576Z,59.19
2022-11-11T09:33:51.734Z,58.89
2022-11-11T09:35:54.514Z,58.75
2022-11-11T09:37:57.810Z,58.99
2022-11-11T09:39:59.921Z,59.13
2022-11-11T09:42:17.796Z,57.95
2022-11-11T09:44:40.676Z,58.65
2022-11-11T09:46:45.582Z,58.33
2022-11-11T09:49:23.056Z,57.72
2022-11-11T09:51:32.798Z,58.34
2022-11-11T09:53:40.709Z,58.34
2022-11-11T09:55:52.570Z,58.96
2022-11-11T09:57:59.620Z,57.64
2022-11-11T10:00:05.472Z,57.62
2022-11-11T10:02:18.153Z,58.42
2022-11-11T10:04:34.860Z,57.96
2022-11-11T10:06:37.574Z,58.10
2022-11-11T10:08:48.695Z,57.67
2022-11-11T10:10:53.500Z,58.71
2022-11-11T10:12:59.398Z,59.20
2022-11-11T10:15:04.059Z,59.11
2022-11-11T10:17:24.999Z,58.70
2022-11-11T10:19:34.578Z,58.47
2022-11-11T10:22:10.607Z,58.85
2022-11-11T10:24:14.792Z,58.62
2022-11-11T10:26:22.376Z,59.03
2022-11-11T10:28:31.474Z,59.18
2022-11-11T10:30:34.014Z,58.80
2022-11-11T10:32:36.596Z,58.82
2022-11-11T10:34:38.456Z,59.43
2022-11-11T10:36:56.920Z,57.39
2022-11-11T10:39:01.804Z,58.29
2022-11-11T10:41:34.422Z,56.99
2022-11-11T10:43:36.316Z,57.36
2022-11-11T10:45:55.691Z,57.42
2022-11-11T10:48:15.967Z,56.49
2022-11-11T10:50:36.731Z,56.28
2022-11-11T10:52:48.314Z,57.00
2022-11-11T10:54:57.336Z,56.93
2022-11-11T10:57:09.996Z,56.85
2022-11-11T10:59:26.471Z,56.31
2022-11-11T11:01:37.502Z,56.82
2022-11-11T11:03:47.266Z,56.46
2022-11-11T11:05:57.434Z,56.60
2022-11-11T11:08:07.195Z,56.24
2022-11-11T11:10:16.811Z,57.37
2022-11-11T11:12:26.394Z,56.74
2022-11-11T11:14:42.057Z,56.12
2022-11-11T11:16:51.346Z,56.59
2022-11-11T11:19:17.055Z,56.75
2022-11-11T11:21:18.968Z,57.21
2022-11-11T11:23:36.754Z,57.11
2022-11-11T11:25:38.972Z,57.34
2022-11-11T11:27:40.775Z,56.86
2022-11-11T11:29:44.752Z,56.66
2022-11-11T11:31:47.926Z,57.09
2022-11-11T11:33:52.994Z,57.17
2022-11-11T11:35:54.826Z,57.40
2022-11-11T11:37:57.172Z,57.63
2022-11-11T11:40:01.673Z,56.43
2022-11-11T11:42:03.555Z,56.93
2022-11-11T11:44:25.831Z,56.88
2022-11-11T11:46:35.643Z,56.59
2022-11-11T11:48:47.937Z,56.38
2022-11-11T11:50:56.688Z,56.57
2022-11-11T11:53:04.402Z,56.07
2022-11-11T11:55:15.808Z,56.28
2022-11-11T11:57:27.043Z,56.60
2022-11-11T12:00:04.074Z,57.08
2022-11-11T12:02:15.016Z,56.93
2022-11-11T12:04:40.955Z,57.09
2022-11-11T12:07:12.610Z,56.68
2022-11-11T12:09:31.562Z,57.09
2022-11-11T12:12:14.447Z,56.40
2022-11-11T12:14:58.039Z,56.69
2022-11-11T12:17:03.263Z,56.37
2022-11-11T12:19:16.863Z,57.07
2022-11-11T12:21:24.919Z,57.00
2022-11-11T12:24:03.744Z,56.74
2022-11-11T12:26:53.458Z,56.90
2022-11-11T12:29:25.001Z,56.21
2022-11-11T12:31:36.057Z,56.20
2022-11-11T12:33:59.891Z,55.88
2022-11-11T12:36:23.762Z,55.70
2022-11-11T12:38:37.848Z,55.74
2022-11-11T12:40:57.082Z,55.60
2022-11-11T12:43:27.364Z,56.45
2022-11-11T12:45:56.533Z,55.85
2022-11-11T12:48:11.567Z,57.38
2022-11-11T12:50:16.917Z,56.66
2022-11-11T12:52:54.715Z,56.32
2022-11-11T12:55:36.130Z,56.46
2022-11-11T12:57:51.530Z,56.88
2022-11-11T13:00:05.743Z,56.87
2022-11-11T13:02:38.938Z,56.49
2022-11-11T13:05:07.202Z,56.70
2022-11-11T13:07:25.436Z,57.45
2022-11-11T13:09:39.553Z,57.27
2022-11-11T13:12:18.149Z,58.02
2022-11-11T13:14:35.552Z,57.21
2022-11-11T13:16:37.350Z,57.71
2022-11-11T13:19:08.166Z,58.19
2022-11-11T13:21:18.287Z,58.30
2022-11-11T13:23:20.232Z,58.07
2022-11-11T13:25:24.902Z,58.61
2022-11-11T13:27:52.946Z,57.98
2022-11-11T13:30:12.599Z,57.91
2022-11-11T13:32:18.280Z,58.41
2022-11-11T13:34:21.453Z,58.51
2022-11-11T13:36:27.748Z,58.61
2022-11-11T13:38:36.235Z,58.70
2022-11-11T13:40:45.607Z,58.54
2022-11-11T13:42:50.974Z,58.42
2022-11-11T13:44:56.957Z,58.52
2022-11-11T13:47:07.777Z,59.21
2022-11-11T13:49:26.585Z,59.33
2022-11-11T13:51:42.894Z,59.47
2022-11-11T13:53:47.941Z,59.97
2022-11-11T13:55:53.179Z,59.65
2022-11-11T13:57:55.706Z,59.19
2022-11-11T14:00:03.262Z,58.98
2022-11-11T14:02:32.466Z,59.62
2022-11-11T14:05:04.076Z,60.34
2022-11-11T14:07:07.942Z,60.39
2022-11-11T14:09:09.795Z,60.47
2022-11-11T14:11:24.361Z,60.38
2022-11-11T14:13:34.784Z,60.29
2022-11-11T14:15:36.749Z,60.51
2022-11-11T14:17:44.841Z,59.90
2022-11-11T14:19:46.944Z,60.71
2022-11-11T14:21:51.323Z,61.18
2022-11-11T14:23:55.697Z,60.68
2022-11-11T14:26:06.391Z,60.31
2022-11-11T14:28:30.731Z,60.49
2022-11-11T14:30:40.492Z,60.92
2022-11-11T14:32:48.091Z,60.72
2022-11-11T14:35:07.319Z,60.41
2022-11-11T14:37:31.514Z,60.35
2022-11-11T14:39:41.386Z,59.91
2022-11-11T14:41:47.857Z,60.70
2022-11-11T14:43:50.165Z,60.43
2022-11-11T14:45:53.495Z,60.69
2022-11-11T14:47:56.575Z,60.85
2022-11-11T14:49:59.870Z,61.30
2022-11-11T14:52:02.268Z,61.23
2022-11-11T14:54:07.083Z,61.41
2022-11-11T14:56:17.868Z,60.60
2022-11-11T14:58:24.246Z,61.56
2022-11-11T15:00:30.068Z,61.57
2022-11-11T15:02:38.575Z,61.02
2022-11-11T15:04:40.895Z,61.19
2022-11-11T15:06:48.943Z,61.16
2022-11-11T15:09:12.618Z,62.06
2022-11-11T15:11:29.676Z,62.38
2022-11-11T15:13:47.939Z,63.23
2022-11-11T15:16:09.027Z,63.41
2022-11-11T15:18:13.939Z,64.00
2022-11-11T15:20:53.248Z,63.19
2022-11-11T15:22:55.421Z,64.17
2022-11-11T15:25:17.871Z,65.22
2022-11-11T15:27:41.487Z,65.79
2022-11-11T15:30:02.205Z,66.07
2022-11-11T15:32:36.989Z,66.74
2022-11-11T15:34:56.011Z,67.05
2022-11-11T15:37:06.020Z,67.20
2022-11-11T15:39:14.155Z,67.21
2022-11-11T15:41:29.492Z,67.66
2022-11-11T15:43:38.616Z,68.22
2022-11-11T15:45:40.959Z,68.40
2022-11-11T15:47:42.875Z,67.92
2022-11-11T15:49:47.822Z,68.01
2022-11-11T15:51:56.582Z,67.50
2022-11-11T15:54:16.830Z,67.68
2022-11-11T15:56:33.333Z,67.24
2022-11-11T15:58:35.208Z,67.21
2022-11-11T16:00:38.155Z,67.26
2022-11-11T16:02:41.936Z,67.58
2022-11-11T16:04:55.756Z,67.60
2022-11-11T16:06:58.323Z,67.57
2022-11-11T16:09:00.753Z,67.24
2022-11-11T16:11:03.046Z,66.91
2022-11-11T16:13:14.033Z,67.40
2022-11-11T16:15:33.049Z,66.93
2022-11-11T16:17:41.389Z,67.03
2022-11-11T16:19:49.143Z,66.79
2022-11-11T16:21:59.965Z,67.50
2022-11-11T16:24:02.796Z,66.94
2022-11-11T16:26:06.322Z,66.45
2022-11-11T16:28:11.703Z,66.80
2022-11-11T16:30:32.156Z,65.81
2022-11-11T16:32:35.030Z,66.24
2022-11-11T16:34:43.406Z,65.96
2022-11-11T16:37:01.848Z,66.46
2022-11-11T16:39:34.102Z,66.23
2022-11-11T16:41:41.615Z,65.96
2022-11-11T16:43:43.864Z,65.92
2022-11-11T16:46:08.218Z,65.87
2022-11-11T16:48:33.762Z,65.92
2022-11-11T16:50:53.912Z,66.86
2022-11-11T16:52:58.056Z,66.42
2022-11-11T16:55:01.202Z,66.36
2022-11-11T16:57:03.155Z,66.42
2022-11-11T16:59:19.207Z,66.53
2022-11-11T17:01:21.433Z,66.12
2022-11-11T17:03:27.693Z,65.86
2022-11-11T17:06:08.942Z,65.20
2022-11-11T17:08:38.853Z,65.47
2022-11-11T17:10:40.738Z,65.34
2022-11-11T17:12:42.921Z,65.72
2022-11-11T17:14:45.097Z,66.56
2022-11-11T17:16:47.032Z,65.86
2022-11-11T17:18:49.204Z,65.83
2022-11-11T17:20:51.747Z,65.36
2022-11-11T17:22:56.850Z,65.41
2022-11-11T17:24:58.760Z,65.65
2022-11-11T17:27:00.999Z,65.29
2022-11-11T17:29:03.130Z,66.13
2022-11-11T17:31:06.325Z,65.91
2022-11-11T17:33:08.608Z,66.41
2022-11-11T17:35:11.948Z,65.74
2022-11-11T17:37:13.927Z,66.45
2022-11-11T17:39:16.239Z,66.30
2022-11-11T17:41:18.303Z,66.14
2022-11-11T17:43:20.843Z,66.85
2022-11-11T17:45:23.076Z,66.70
2022-11-11T17:47:25.269Z,66.32
2022-11-11T17:49:55.178Z,66.75
2022-11-11T17:51:49.383Z,66.79
2022-11-11T17:53:52.152Z,66.09
2022-11-11T17:55:54.423Z,66.20
2022-11-11T17:57:58.355Z,65.78
2022-11-11T18:00:00.282Z,66.36
2022-11-11T18:02:03.298Z,66.28
2022-11-11T18:04:06.411Z,65.91
2022-11-11T18:06:09.585Z,66.30
2022-11-11T18:08:11.378Z,66.06
2022-11-11T18:10:14.515Z,65.95
2022-11-11T18:12:16.361Z,66.44
2022-11-11T18:14:18.463Z,66.36
2022-11-11T18:16:22.250Z,66.76
2022-11-11T18:18:24.321Z,65.82
2022-11-11T18:20:26.106Z,66.85
2022-11-11T18:22:28.920Z,67.04
2022-11-11T18:24:30.750Z,67.25
2022-11-11T18:26:33.121Z,67.07
2022-11-11T18:28:38.118Z,67.57
2022-11-11T18:30:40.155Z,67.62
2022-11-11T18:32:42.008Z,67.53
2022-11-11T18:34:44.768Z,67.80
2022-11-11T18:36:46.566Z,67.71
2022-11-11T18:38:48.467Z,68.31
2022-11-11T18:40:50.596Z,68.92
2022-11-11T18:42:52.819Z,68.61
2022-11-11T18:44:54.588Z,68.89
2022-11-11T18:46:56.890Z,69.10
2022-11-11T18:49:01.064Z,70.13
2022-11-11T18:51:03.707Z,69.83
2022-11-11T18:53:05.849Z,69.04
2022-11-11T18:55:08.112Z,68.79
2022-11-11T18:57:09.866Z,68.76
2022-11-11T18:59:12.206Z,68.21
2022-11-11T19:01:22.587Z,69.02
2022-11-11T19:03:25.120Z,69.65
2022-11-11T19:05:27.448Z,69.75
2022-11-11T19:07:29.257Z,70.05
2022-11-11T19:09:31.026Z,70.51
2022-11-11T19:11:37.111Z,70.34
2022-11-11T19:13:38.991Z,71.06
2022-11-11T19:15:41.794Z,71.25
2022-11-11T19:17:43.995Z,71.57
2022-11-11T19:19:45.830Z,72.44
2022-11-11T19:21:47.662Z,72.92
2022-11-11T19:23:51.642Z,72.77
2022-11-11T19:25:58.248Z,73.69
2022-11-11T19:28:00.115Z,74.20
2022-11-11T19:30:02.333Z,74.33
2022-11-11T19:32:04.507Z,75.06
2022-11-11T19:34:06.406Z,75.00
2022-11-11T19:36:11.244Z,75.19
2022-11-11T19:38:13.078Z,75.44
2022-11-11T19:40:15.137Z,75.60
2022-11-11T19:42:17.466Z,74.96
2022-11-11T19:44:19.434Z,74.66
2022-11-11T19:46:21.791Z,75.20
2022-11-11T19:48:24.090Z,74.50
2022-11-11T19:50:25.888Z,74.70
2022-11-11T19:52:27.764Z,74.44
2022-11-11T19:54:29.910Z,74.19
2022-11-11T19:56:31.828Z,74.39
2022-11-11T19:58:34.032Z,74.41
2022-11-11T20:00:36.429Z,73.98
2022-11-11T20:02:38.248Z,73.45
2022-11-11T20:04:40.138Z,73.85
2022-11-11T20:06:42.852Z,73.56
2022-11-11T20:08:44.764Z,73.42
2022-11-11T20:10:47.103Z,72.74
2022-11-11T20:12:52.062Z,73.73
2022-11-11T20:14:53.912Z,73.86
2022-11-11T20:16:55.796Z,73.77
2022-11-11T20:18:59.754Z,73.91
2022-11-11T20:21:03.406Z,74.12
2022-11-11T20:23:06.176Z,73.37
2022-11-11T20:25:08.311Z,72.72
2022-11-11T20:27:10.184Z,73.52
2022-11-11T20:29:12.204Z,73.71
2022-11-11T20:31:18.461Z,73.34
2022-11-11T20:33:20.225Z,72.63
2022-11-11T20:35:22.066Z,73.46
2022-11-11T20:37:24.301Z,73.14
2022-11-11T20:39:26.057Z,73.08
2022-11-11T20:41:27.878Z,73.01
2022-11-11T20:43:30.905Z,72.91
2022-11-11T20:45:32.828Z,72.46
2022-11-11T20:47:34.725Z,72.09
2022-11-11T20:49:36.935Z,71.66
2022-11-11T20:51:38.774Z,71.86
2022-11-11T20:53:41.229Z,71.49
2022-11-11T20:55:43.430Z,71.81
2022-11-11T20:57:45.222Z,71.71
2022-11-11T20:59:47.033Z,71.37
2022-11-11T21:01:49.391Z,71.62
2022-11-11T21:03:56.002Z,72.22
2022-11-11T21:06:10.255Z,71.77
2022-11-11T21:08:12.431Z,72.38
2022-11-11T21:10:14.495Z,72.02
2022-11-11T21:12:16.339Z,71.92
2022-11-11T21:14:18.586Z,72.82
2022-11-11T21:16:22.785Z,73.07
2022-11-11T21:18:24.623Z,73.20
2022-11-11T21:20:26.870Z,72.47
2022-11-11T21:22:28.664Z,72.15
2022-11-11T21:24:30.538Z,72.03
2022-11-11T21:26:35.890Z,72.33
2022-11-11T21:28:39.641Z,72.03
2022-11-11T21:30:41.471Z,71.76
2022-11-11T21:32:43.863Z,71.68
2022-11-11T21:34:45.850Z,71.23
2022-11-11T21:36:47.655Z,71.52
2022-11-11T21:38:50.595Z,71.25
2022-11-11T21:40:52.360Z,71.28
2022-11-11T21:42:58.229Z,70.78
2022-11-11T21:45:00.770Z,71.60
2022-11-11T21:47:02.926Z,71.62
2022-11-11T21:49:05.799Z,71.72
2022-11-11T21:51:19.985Z,71.93
2022-11-11T21:53:21.937Z,71.87
2022-11-11T21:55:23.740Z,72.21
2022-11-11T21:57:25.933Z,71.95
2022-11-11T21:59:27.690Z,71.07
2022-11-11T22:01:32.553Z,70.75
2022-11-11T22:03:36.187Z,70.74
2022-11-11T22:05:38.142Z,70.88
2022-11-11T22:07:39.968Z,71.15
2022-11-11T22:09:42.545Z,71.08
2022-11-11T22:11:44.358Z,71.62
2022-11-11T22:13:46.729Z,71.67
2022-11-11T22:15:57.979Z,70.95
2022-11-11T22:18:00.126Z,71.44
2022-11-11T22:20:01.885Z,71.02
2022-11-11T22:22:04.367Z,70.98
2022-11-11T22:24:09.261Z,71.48
2022-11-11T22:26:11.411Z,71.15
2022-11-11T22:28:13.566Z,71.09
2022-11-11T22:30:15.686Z,72.12
2022-11-11T22:32:17.491Z,71.50
2022-11-11T22:34:19.806Z,72.09
2022-11-11T22:36:21.616Z,71.44
2022-11-11T22:38:23.761Z,71.39
2022-11-11T22:40:26.334Z,71.36
2022-11-11T22:42:28.535Z,71.16
2022-11-11T22:44:30.836Z,71.03
2022-11-11T22:46:35.590Z,71.00
2022-11-11T22:48:38.867Z,71.09
2022-11-11T22:50:40.783Z,70.63
2022-11-11T22:52:47.922Z,70.77
2022-11-11T22:54:49.743Z,70.33
2022-11-11T22:56:51.613Z,70.43
2022-11-11T22:58:54.627Z,70.39
2022-11-11T23:01:01.821Z,70.35
2022-11-11T23:03:03.745Z,70.07
2022-11-11T23:05:05.963Z,70.00
2022-11-11T23:07:07.792Z,69.96
2022-11-11T23:09:10.366Z,69.77
2022-11-11T23:11:14.112Z,70.42
2022-11-11T23:13:15.905Z,70.90
2022-11-11T23:15:17.790Z,71.11
2022-11-11T23:17:19.951Z,71.20
2022-11-11T23:19:27.020Z,70.91
2022-11-11T23:21:31.179Z,70.83
2022-11-11T23:23:34.921Z,70.99
2022-11-11T23:25:36.717Z,70.92
2022-11-11T23:27:38.554Z,70.90
2022-11-11T23:29:40.670Z,71.53
2022-11-11T23:31:42.456Z,70.81
2022-11-11T23:33:46.654Z,71.22
2022-11-11T23:35:48.803Z,70.83
2022-11-11T23:37:50.659Z,70.99
2022-11-11T23:39:52.500Z,70.99
2022-11-11T23:41:54.598Z,70.31
2022-11-11T23:43:56.526Z,70.63
2022-11-11T23:45:58.706Z,70.73
2022-11-11T23:48:01.041Z,70.92
2022-11-11T23:50:02.848Z,71.54
2022-11-11T23:52:04.751Z,71.42
2022-11-11T23:54:06.912Z,71.85
2022-11-11T23:56:08.843Z,72.38
2022-11-11T23:58:11.787Z,72.01
